Airfield :
LOGIN :

Register | Disclaimer

   EN    FR    IT 

 










Legend :    VFR   Marginal VFR   IFR   Intensive IFR   Very Intensive IFR
Visi :
Ceiling :
>= 8 km
>= 3000ft
5 to 8 km
1000 to 3000 ft
1500m to 5 km
500 to 1000 ft
800 to 1500m
200 to 500 ft
< 800m
< 200 ft
Symbols :   Thunderstorms  Fog  Heavy snow  Heavy precipitations  Wind > 20 kt
SIGMETs :     Misc.  Thunderstorms  Icing  Turbulence  Mountain Waves  Volcanic Ashes







- Airport Elevation : 468 ft
- IATA code : GRO


LEGE - Girona Costa Brava

CURRENT METAR :
  • 251430Z 14008KT 9999 FEW040 23/09 Q1015

EXPIRED METARs :
  • 251400Z 14008KT 100V190 9999 FEW040 24/10 Q1016
  • 251330Z 13007KT 070V180 9999 FEW040 24/10 Q1016
  • 251300Z 15007KT 110V190 9999 FEW040 24/09 Q1016
  • 251230Z 15005KT 060V220 9999 FEW040 24/09 Q1016
  • 251200Z 15006KT 110V210 9999 FEW040 23/11 Q1016

TAF TAF LEGE
Valid from the 25 at 12:00 until the 26 at 12:00 UTC


251100Z 2512/2612 VRB03KT 9999 FEW040 TX28/2513Z TN14/2606Z
TEMPO 2512/2515 FEW060CB
PROB40
TEMPO 2512/2518 12009KT
PROB40
TEMPO 2603/2612 FEW060CB
PROB30
TEMPO 2603/2606 TSRA FEW050CB
No reported NOTAMs for that airfield.



MET'MAP, your aeronautical weather chart ! - Copyright ORBIFLY December 2007 - Disclaimer

ORBIFLY MET'MAP TEAM :

Programming & Development : Alexandra Zaïnal
Concept & Development : Baudouin d'Aumeries
Co-Development & Prog : Marc-Olivier Méhu
Technical & hardware support : Manuel Goepfert

Contact : metmap@orbifly.com




SOURCES & CREDITS :

   NOAA